createdAt,value
2022-09-23T00:00:30.097Z,82
2022-09-23T00:05:41.909Z,82
2022-09-23T00:10:53.545Z,77
2022-09-23T00:16:05.447Z,77
2022-09-23T00:21:17.320Z,76
2022-09-23T00:26:29.009Z,73
2022-09-23T00:31:40.864Z,73
2022-09-23T00:36:52.663Z,73
2022-09-23T00:42:04.265Z,73
2022-09-23T00:47:15.886Z,70
2022-09-23T00:52:27.562Z,67
2022-09-23T00:57:39.269Z,68
2022-09-23T01:02:51.649Z,70
2022-09-23T01:08:03.452Z,69
2022-09-23T01:13:15.170Z,69
2022-09-23T01:18:26.957Z,69
2022-09-23T01:23:38.711Z,68
2022-09-23T01:28:50.637Z,69
2022-09-23T01:34:02.323Z,68
2022-09-23T01:39:14.179Z,68
2022-09-23T01:44:25.792Z,64
2022-09-23T01:49:38.223Z,50
2022-09-23T01:54:50.170Z,49
2022-09-23T02:00:01.636Z,44
2022-09-23T02:05:13.412Z,44
2022-09-23T02:10:24.994Z,45
2022-09-23T02:15:36.814Z,45
2022-09-23T02:20:48.516Z,53
2022-09-23T02:26:00.038Z,55
2022-09-23T02:31:11.787Z,50
2022-09-23T02:41:35.380Z,50
2022-09-23T02:46:47.030Z,52
2022-09-23T02:51:58.698Z,53
2022-09-23T02:57:10.394Z,53
2022-09-23T03:02:22.504Z,53
2022-09-23T03:07:33.880Z,53
2022-09-23T03:12:45.646Z,52
2022-09-23T03:17:57.279Z,51
2022-09-23T03:23:08.814Z,50
2022-09-23T03:28:20.515Z,50
2022-09-23T03:33:32.288Z,48
2022-09-23T03:38:43.972Z,48
2022-09-23T03:43:55.884Z,40
2022-09-23T03:49:07.425Z,38
2022-09-23T03:54:19.095Z,38
2022-09-23T03:59:30.943Z,37
2022-09-23T04:04:42.579Z,37
2022-09-23T04:09:54.202Z,33
2022-09-23T04:15:06.116Z,33
2022-09-23T04:20:17.866Z,33
2022-09-23T04:25:29.725Z,33
2022-09-23T04:30:41.509Z,33
2022-09-23T04:35:53.309Z,33
2022-09-23T04:41:05.113Z,34
2022-09-23T04:46:17.481Z,34
2022-09-23T04:51:29.240Z,34
2022-09-23T04:56:40.978Z,34
2022-09-23T05:01:53.204Z,34
2022-09-23T05:07:05.004Z,34
2022-09-23T05:12:16.970Z,34
2022-09-23T05:17:28.870Z,34
2022-09-23T05:22:40.643Z,33
2022-09-23T05:27:52.548Z,33
2022-09-23T05:33:04.472Z,32
2022-09-23T05:38:16.373Z,32
2022-09-23T05:43:28.117Z,32
2022-09-23T05:48:40.271Z,33
2022-09-23T05:53:52.241Z,33
2022-09-23T05:59:04.447Z,34
2022-09-23T06:04:16.343Z,34
2022-09-23T06:09:32.903Z,34
2022-09-23T06:14:46.428Z,34
2022-09-23T06:19:58.504Z,34
2022-09-23T06:25:10.373Z,34
2022-09-23T06:30:22.156Z,34
2022-09-23T06:35:34.189Z,34
2022-09-23T06:40:46.204Z,34
2022-09-23T06:45:58.062Z,32
2022-09-23T06:51:10.077Z,33
2022-09-23T06:56:22.193Z,33
2022-09-23T07:01:34.687Z,34
2022-09-23T07:06:46.972Z,33
2022-09-23T07:11:58.759Z,34
2022-09-23T07:17:10.845Z,33
2022-09-23T07:22:23.114Z,34
2022-09-23T07:27:35.075Z,34
2022-09-23T07:32:50.352Z,33
2022-09-23T07:38:01.687Z,33
2022-09-23T07:43:13.718Z,35
2022-09-23T07:48:25.792Z,36
2022-09-23T07:53:37.938Z,36
2022-09-23T07:58:50.025Z,37
2022-09-23T08:04:02.269Z,37
2022-09-23T08:09:14.368Z,37
2022-09-23T08:14:26.417Z,38
2022-09-23T08:19:38.439Z,39
2022-09-23T08:24:56.974Z,38
2022-09-23T08:30:10.790Z,40
2022-09-23T08:35:22.924Z,41
2022-09-23T08:40:35.473Z,42
2022-09-23T08:45:47.530Z,45
2022-09-23T08:50:59.367Z,43
2022-09-23T08:56:11.585Z,45
2022-09-23T09:01:23.774Z,45
2022-09-23T09:07:24.871Z,46
2022-09-23T09:12:42.789Z,47
2022-09-23T09:17:54.688Z,47
2022-09-23T09:23:06.635Z,48
2022-09-23T09:33:36.905Z,85
2022-09-23T09:38:48.931Z,82
2022-09-23T09:44:01.577Z,82
2022-09-23T09:49:13.513Z,78
2022-09-23T09:59:37.930Z,77
2022-09-23T10:04:50.272Z,78
2022-09-23T10:10:34.184Z,76
2022-09-23T10:15:46.183Z,75
2022-09-23T10:21:03.334Z,75
2022-09-23T10:26:17.895Z,76
2022-09-23T10:31:30.240Z,74
2022-09-23T10:36:45.645Z,73
2022-09-23T10:41:56.818Z,73
2022-09-23T10:47:09.150Z,72
2022-09-23T10:57:33.719Z,72
2022-09-23T11:02:46.350Z,69
2022-09-23T11:07:58.871Z,68
2022-09-23T11:13:13.043Z,67
2022-09-23T11:18:27.489Z,58
2022-09-23T11:23:42.640Z,55
2022-09-23T11:28:57.210Z,48
2022-09-23T11:34:11.455Z,43
2022-09-23T11:39:24.675Z,43
2022-09-23T11:44:38.193Z,40
2022-09-23T11:49:50.908Z,38
2022-09-23T11:55:23.706Z,39
2022-09-23T12:00:33.508Z,37
2022-09-23T12:05:47.001Z,37
2022-09-23T12:16:10.891Z,38
2022-09-23T12:21:52.021Z,36
2022-09-23T12:42:33.059Z,40
2022-09-23T12:47:46.188Z,37
2022-09-23T12:52:59.953Z,38
2022-09-23T12:58:13.070Z,37
2022-09-23T13:08:36.483Z,38
2022-09-23T13:13:48.651Z,39
2022-09-23T13:19:00.861Z,38
2022-09-23T13:34:32.985Z,41
2022-09-23T13:39:44.576Z,42
2022-09-23T13:50:06.448Z,44
2022-09-23T13:55:18.217Z,42
2022-09-23T14:00:30.075Z,43
2022-09-23T14:21:12.741Z,46
2022-09-23T14:26:25.051Z,44
2022-09-23T14:31:37.680Z,43
2022-09-23T14:42:00.629Z,44
2022-09-23T14:47:13.222Z,44
2022-09-23T14:52:25.344Z,43
2022-09-23T14:57:37.249Z,44
2022-09-23T15:02:49.530Z,44
2022-09-23T15:08:01.608Z,44
2022-09-23T15:13:13.798Z,47
2022-09-23T15:18:26.027Z,47
2022-09-23T15:33:58.207Z,54
2022-09-23T15:39:36.872Z,58
2022-09-23T15:44:44.652Z,59
2022-09-23T15:49:56.606Z,60
2022-09-23T15:55:08.755Z,61
2022-09-23T16:00:20.602Z,63
2022-09-23T16:05:33.324Z,64
2022-09-23T16:10:45.371Z,65
2022-09-23T16:15:57.834Z,66
2022-09-23T16:31:30.793Z,69
2022-09-23T16:36:42.784Z,70
2022-09-23T16:41:55.530Z,72
2022-09-23T16:47:07.653Z,72
2022-09-23T16:52:19.832Z,72
2022-09-23T16:58:04.310Z,73
2022-09-23T17:08:22.767Z,74
2022-09-23T17:13:34.813Z,73
2022-09-23T17:18:47.034Z,74
2022-09-23T17:23:59.064Z,74
2022-09-23T17:34:20.926Z,77
2022-09-23T17:39:32.809Z,78
2022-09-23T17:44:44.728Z,80
2022-09-23T17:55:06.595Z,84
2022-09-23T18:00:18.729Z,86
2022-09-23T18:10:41.128Z,90
2022-09-23T18:15:53.663Z,91
2022-09-23T18:21:05.754Z,92
2022-09-23T18:26:18.397Z,93
2022-09-23T18:31:31.262Z,93
2022-09-23T18:36:43.173Z,94
2022-09-23T18:41:55.086Z,94
2022-09-23T18:47:11.388Z,94
2022-09-23T18:52:26.748Z,94
2022-09-23T18:57:44.237Z,94
2022-09-23T19:03:02.541Z,92
2022-09-23T19:08:13.597Z,91
2022-09-23T19:13:28.899Z,85
2022-09-23T19:18:40.129Z,85
2022-09-23T19:23:54.969Z,83
2022-09-23T19:29:06.674Z,82
2022-09-23T19:34:18.632Z,81
2022-09-23T19:39:30.318Z,78
2022-09-23T19:44:43.392Z,76
2022-09-23T19:49:55.519Z,72
2022-09-23T19:55:09.389Z,73
2022-09-23T20:00:24.773Z,74
2022-09-23T20:05:39.857Z,73
2022-09-23T20:10:51.617Z,73
2022-09-23T20:16:03.998Z,72
2022-09-23T20:21:16.027Z,71
2022-09-23T20:26:27.977Z,71
2022-09-23T20:31:40.034Z,71
2022-09-23T20:36:52.417Z,69
2022-09-23T20:42:04.447Z,69
2022-09-23T20:47:16.781Z,68
2022-09-23T20:52:28.347Z,68
2022-09-23T20:57:39.987Z,66
2022-09-23T21:02:51.981Z,66
2022-09-23T21:08:09.271Z,62
2022-09-23T21:13:24.519Z,64
2022-09-23T21:18:36.512Z,62
2022-09-23T21:23:48.236Z,60
2022-09-23T21:28:59.745Z,60
2022-09-23T21:34:11.810Z,60
2022-09-23T21:39:23.359Z,58
2022-09-23T21:44:36.035Z,56
2022-09-23T21:49:51.859Z,57
2022-09-23T21:55:02.437Z,57
2022-09-23T22:00:14.285Z,58
2022-09-23T22:05:26.074Z,54
2022-09-23T22:10:37.850Z,55
2022-09-23T22:15:50.170Z,56
2022-09-23T22:21:02.106Z,55
2022-09-23T22:26:13.826Z,56
2022-09-23T22:31:25.954Z,56
2022-09-23T22:36:37.779Z,56
2022-09-23T22:41:49.474Z,56
2022-09-23T22:47:16.634Z,56
2022-09-23T22:52:25.531Z,57
2022-09-23T22:57:37.341Z,57
2022-09-23T23:02:49.068Z,57
2022-09-23T23:08:01.737Z,57
2022-09-23T23:13:13.077Z,56
2022-09-23T23:18:27.657Z,55
2022-09-23T23:23:38.619Z,54
2022-09-23T23:28:50.139Z,54
2022-09-23T23:34:01.947Z,53
2022-09-23T23:39:13.683Z,53
2022-09-23T23:44:25.496Z,53
2022-09-23T23:54:48.875Z,53
